x

8452944 - Conimicut Light, Ri (cptr1) Weather Station

4:30 - Sun 14th Feb 2016 All times are EST. -5 hours from GMT.

  • Wind
    17mph, 22mph gusts
  • Sea Temp 33°f
  • Luft Temp 12°f
  • Sea Pressure 1030.6mb
  • 8452944 - Conimicut Light, Ri
  • 8452944 - Conimicut Light, Ri

More Historic Weather Station data

Upgrade to MSW Pro to gain access to the past 30 days of data for over 8000 Wavebouys and Weather Stations around the globe.

Join Pro

Comparision Forecast

View Surf forecast
   
So 02/14 4:30 17 22 mph 1030.6mb 33f 12f
4:24 18 23 mph 1030.6mb 33f 12f
4:18 17 22 mph 1030.6mb 33f 12f
4:12 20 23 mph 1030.7mb 33f 12f
4:06 15 20 mph 1030.6mb 33f 12f
4:00 16 21 mph 1030.7mb 33f 11f
3:54 18 22 mph 1030.6mb 33f 11f
3:48 20 22 mph 1030.5mb 33f 11f
3:42 20 23 mph 1030.6mb 33f 11f
3:36 18 21 mph 1030.5mb 33f 11f
3:30 20 23 mph 1030.5mb 33f 11f
3:24 18 25 mph 1030.4mb 33f 11f
3:18 22 26 mph 1030.3mb 33f 11f
3:12 17 23 mph 1030.2mb 33f 12f
3:06 15 21 mph 1030.2mb 33f 12f
3:00 17 23 mph 1030mb 33f 12f
2:54 14 21 mph 1030mb 32f 13f
2:48 15 20 mph 1029.9mb 32f 11f
2:42 16 21 mph 1029.9mb 32f 11f
2:36 17 22 mph 1029.8mb 32f 10f
2:30 15 18 mph 1029.8mb 32f 11f
2:24 14 18 mph 1029.9mb 32f 10f
2:18 16 20 mph 1029.9mb 32f 10f
2:12 14 21 mph 1029.9mb 32f 10f
2:06 15 21 mph 1030mb 32f 10f
2:00 13 20 mph 1030.1mb 32f 9f
1:54 14 18 mph 1030.1mb 32f 9f
1:48 15 18 mph 1030.2mb 32f 9f
1:42 14 20 mph 1030.1mb 32f 9f
1:36 16 21 mph 1030.1mb 32f 8f
1:30 15 20 mph 1030mb 32f 8f
1:24 17 20 mph 1030mb 32f 8f
1:18 14 23 mph 1030mb 32f 7f
1:12 13 22 mph 1030mb 32f 7f
1:06 17 24 mph 1029.9mb 32f 7f
1:00 15 21 mph 1030.1mb 32f 7f
12:54 14 18 mph 1030.1mb 31f 6f
12:48 17 21 mph 1030mb 31f 7f
12:42 15 17 mph 1030.1mb 31f 6f
12:36 14 17 mph 1030.1mb 31f 6f
12:30 16 20 mph 1030.1mb 31f 6f
12:24 16 20 mph 1030.1mb 31f 5f
12:18 16 20 mph 1030.2mb 31f 5f
12:12 15 20 mph 1030.3mb 31f 4f
12:06 14 21 mph 1030.5mb 31f 4f
12:00 13 17 mph 1030.5mb 31f 5f
11:54 15 21 mph 1030.4mb 31f 4f
11:48 14 21 mph 1030.4mb 31f 4f
11:42 16 21 mph 1030.5mb 31f 4f
11:36 18 22 mph 1030.6mb 31f 2f
11:30 15 22 mph 1030.6mb 31f 2f
11:24 16 21 mph 1030.7mb 31f 2f
11:18 14 20 mph 1030.6mb 31f 2f
11:12 18 23 mph 1030.6mb 31f 1f
11:06 16 21 mph 1030.6mb 31f 1f
11:00 17 22 mph 1030.5mb 31f 1f
10:54 17 24 mph 1030.4mb 31f 1f
10:48 16 21 mph 1030.3mb 31f -
10:42 16 21 mph 1030.3mb 31f 1f
10:36 18 24 mph 1030.2mb 31f -
10:30 21 24 mph 1030mb 31f 1f
10:24 20 24 mph 1030mb 31f 1f
10:18 21 24 mph 1029.8mb 31f -
10:12 21 25 mph 1029.6mb 31f -1f
10:06 23 26 mph 1029.7mb 31f -1f
10:00 22 28 mph 1029.8mb 32f -2f
9:54 22 26 mph 1029.8mb 32f -
9:48 22 25 mph 1029.9mb 32f -
9:42 21 26 mph 1029.9mb 32f -1f
9:36 22 29 mph 1029.8mb 32f -1f
9:30 22 29 mph 1029.9mb 32f -3f
9:24 23 31 mph 1029.8mb 32f -2f
9:18 26 30 mph 1029.6mb 32f -2f
9:12 25 31 mph 1029.5mb 32f -3f
9:06 22 31 mph 1029.6mb 32f -3f
9:00 23 29 mph 1029.5mb 32f -2f
8:54 26 32 mph 1029.4mb 32f -3f
8:48 23 30 mph 1029.4mb 32f -4f
8:42 25 31 mph 1029.4mb 32f -4f
8:36 24 29 mph 1029.4mb 32f -3f
8:30 24 31 mph 1029.4mb 32f -5f
8:24 30 36 mph 1029.3mb 32f -5f
8:18 24 29 mph 1029.4mb 33f -5f
8:12 21 26 mph 1029.4mb 33f -5f
8:06 20 25 mph 1029.4mb 33f -6f
8:00 21 30 mph 1029.3mb 33f -6f
7:54 25 30 mph 1029mb 33f -5f
7:48 22 29 mph 1029.1mb 33f -6f
7:42 21 26 mph 1029mb 33f -6f
7:36 18 25 mph 1029mb 33f -6f
7:30 17 23 mph 1029mb 33f -6f
7:24 21 26 mph 1028.9mb 33f -6f
7:18 21 28 mph 1028.7mb 33f -7f
7:12 22 36 mph 1028.5mb 33f -6f
7:06 23 29 mph 1028.4mb 33f -5f
7:00 28 33 mph 1028mb 33f -7f
6:54 24 30 mph 1027.8mb 33f -7f
6:48 24 33 mph 1027.7mb 33f -7f
6:42 28 32 mph 1027.4mb 33f -6f
6:36 26 31 mph 1027.3mb 33f -7f
6:30 24 31 mph 1027.3mb 33f -6f
6:24 26 32 mph 1027.2mb 33f -7f
6:18 24 30 mph 1027.2mb 33f -6f
6:12 24 29 mph 1027.1mb 33f -6f
6:06 22 32 mph 1027.2mb 33f -7f
6:00 26 31 mph 1027.1mb 33f -6f
5:54 25 31 mph 1027mb 33f -7f
5:48 28 32 mph 1026.7mb 33f -6f
5:42 26 34 mph 1026.5mb 33f -6f
5:36 29 33 mph 1026.4mb 33f -6f
5:30 29 34 mph 1026.3mb 33f -7f
5:24 26 31 mph 1026.3mb 33f -7f
5:18 23 29 mph 1026.2mb 33f -6f
5:12 24 31 mph 1026.2mb 33f -6f
5:06 23 32 mph 1026mb 33f -5f
5:00 23 29 mph 1025.8mb 33f -5f
4:54 26 31 mph 1025.7mb 33f -7f
4:48  -  mph 1025.7mb 33f -5f
4:42  -  mph 1025.6mb 33f -5f
4:36  -  mph 1025.7mb 33f -6f
4:30 25 32 mph 1025.6mb 33f -6f
4:24 24 33 mph 1025.5mb 33f -6f
4:18 26 34 mph 1025.4mb 34f -6f
4:12 25 30 mph 1025.3mb 34f -5f
4:06 25 30 mph 1025.3mb 34f -6f
4:00 28 32 mph 1025.1mb 34f -5f
3:54 24 32 mph 1025mb 34f -5f
3:48 23 28 mph 1025mb 34f -6f
3:42 22 31 mph 1024.9mb 34f -5f
3:36 25 34 mph 1024.8mb 34f -5f
3:30 28 36 mph 1024.7mb 34f -5f
3:24 26 34 mph 1024.6mb 34f -5f
3:18 23 30 mph 1024.5mb 34f -6f
3:12 25 29 mph 1024.5mb 34f -4f
3:06 25 30 mph 1024.5mb 34f -5f
3:00 22 29 mph 1024.4mb 34f -4f
2:54 25 31 mph 1024.4mb 34f -4f
2:48 25 29 mph 1024.3mb 34f -5f
2:42 30 36 mph 1024.2mb 34f -5f
2:36 25 33 mph 1024.2mb 34f -4f
2:30 29 36 mph 1024.1mb 34f -4f
2:24 28 32 mph 1024.2mb 34f -4f
2:18 26 32 mph 1024mb 34f -3f
2:12 25 30 mph 1024mb 34f -4f
2:06 26 34 mph 1024mb 34f -3f
2:00 26 31 mph 1023.8mb 34f -3f
1:54 26 32 mph 1023.7mb 34f -2f
1:48 28 33 mph 1023.7mb 34f -3f
1:42 28 32 mph 1023.6mb 34f -2f
1:36 28 33 mph 1023.6mb 34f -2f
1:30 30 37 mph 1023.5mb 34f -2f
1:24 29 37 mph 1023.4mb 34f -1f
1:18 32 37 mph 1023.1mb 34f -1f
1:12 29 36 mph 1023.2mb 34f -
1:06 28 34 mph 1023.2mb 34f -1f
1:00 24 30 mph 1023.1mb 34f -1f
12:54 23 26 mph 1023mb 34f -1f
12:48 23 30 mph 1023mb 34f -
12:42 23 29 mph 1022.9mb 34f 1f
12:36 23 29 mph 1022.8mb 34f -
12:30 24 33 mph 1022.7mb 34f -
12:24 26 30 mph 1022.7mb 34f -
12:18 22 30 mph 1022.7mb 34f 1f
12:12 23 30 mph 1022.6mb 34f 1f
12:06 30 33 mph 1022.4mb 34f 1f
12:00 25 33 mph 1022.4mb 34f 1f
Sa 02/13 11:54 26 31 mph 1022.3mb 34f 1f
11:48 30 34 mph 1022.3mb 34f 2f
11:42 26 32 mph 1022.3mb 34f 1f
11:36 29 37 mph 1022.3mb 34f 1f
11:30 32 36 mph 1022.3mb 34f 1f
11:24 26 33 mph 1022.4mb 34f 1f
11:18 30 38 mph 1022.3mb 34f 2f
11:12 29 36 mph 1022.1mb 34f 2f
11:06 31 36 mph 1022mb 34f 2f
11:00 30 38 mph 1022mb 33f 1f
10:54 31 37 mph 1022.1mb 33f 2f
10:48 29 38 mph 1022.1mb 33f 2f
10:42 30 36 mph 1022mb 33f 2f
10:36 30 39 mph 1022.1mb 33f 2f
10:30 25 34 mph 1022.1mb 33f 2f
10:24 29 36 mph 1022.3mb 33f 2f
10:18 26 38 mph 1022.2mb 33f 2f
10:12 24 36 mph 1022.3mb 33f 2f
10:06 28 37 mph 1022.3mb 33f 2f
10:00  -  mph 1022.3mb 33f 3f
9:54  -  mph 1022.4mb 32f 3f
9:48 32 38 mph 1022.2mb 32f 2f
9:42 26 38 mph 1022.4mb 32f 2f
9:36 29 38 mph 1022.2mb 32f 3f
9:30 34 43 mph 1022.2mb 32f 3f
9:24 28 34 mph 1022.5mb 33f 3f
9:18 33 38 mph 1022.3mb 33f 2f
9:12 25 32 mph 1022.4mb 33f 3f
9:06 30 36 mph 1022.3mb 33f 2f
9:00  -  mph 1022.2mb 34f 3f
8:54  -  mph 1022.2mb 34f 3f
8:48 29 34 mph - 34f 4f
8:42 32 41 mph - 34f 3f
8:36 30 36 mph - 35f 4f
8:30 30 39 mph 1021.9mb 35f -
8:24 36 40 mph 1021.8mb 35f -
8:18  -  mph 1021.9mb 35f 4f
8:12  -  mph 1021.8mb 35f 4f
8:06  -  mph 1021.6mb 35f 4f
8:00 31 39 mph 1021.8mb 35f 4f
7:54 33 46 mph 1021.5mb 35f 5f
7:48 33 39 mph 1021.5mb 35f 4f
7:42 34 44 mph 1021.1mb 35f 5f
7:36 38 44 mph 1020.9mb 35f 4f
7:30 34 43 mph 1020.9mb 35f 4f
7:24 37 41 mph 1020.7mb 36f 4f
7:18 32 38 mph 1020.7mb 36f 5f
7:12 37 46 mph 1020.6mb 35f 5f
7:06 32 40 mph 1020.6mb 36f 6f
7:00  -  mph 1020.6mb 36f 6f
6:54  -  mph 1020.2mb 36f 7f
6:48 37 43 mph 1020mb 36f 6f
6:42 36 44 mph 1020.2mb 36f 7f
6:36 33 40 mph 1019.9mb 36f 7f
6:30 33 40 mph 1019.7mb - -
6:24 29 40 mph 1019.6mb - -
6:18  -  mph 1019.5mb 36f 8f
6:12  -  mph 1019.4mb 36f 7f
6:06  -  mph 1019mb 36f 8f
6:00  -  mph 1018.9mb 36f 9f
5:54  -  mph 1018.8mb 36f 9f
5:48 26 32 mph 1018.6mb 36f 9f
5:42 29 37 mph 1018.4mb 36f 10f
5:36 33 43 mph 1018.2mb 36f 9f
5:30 30 39 mph 1018.2mb 36f 9f
5:24 31 39 mph 1018.2mb 36f 10f
5:18 29 40 mph 1017.8mb 36f 10f
5:12 32 38 mph 1017.6mb 36f 11f
5:06 29 36 mph 1017.5mb 36f 11f
5:00  -  mph 1017.4mb 36f 11f
4:54  -  mph 1017.4mb 36f 11f
4:48 32 41 mph 1017.4mb 36f 11f
4:42 30 39 mph 1016.9mb 36f 13f
4:36 33 39 mph 1016.5mb 36f 13f
4:30 30 39 mph 1016.3mb 37f 13f
4:24 33 40 mph 1016.1mb 37f 13f
4:18 33 45 mph 1016.1mb 37f 14f
4:12 36 44 mph 1016.1mb 37f 14f
4:06 41 46 mph 1015.6mb 37f 14f
4:00 39 45 mph 1015.6mb 37f 14f
3:54 33 41 mph 1015.3mb 37f 15f
3:48 36 41 mph 1015.1mb 37f 15f
3:42 30 37 mph 1015.1mb 37f 16f
3:36 34 41 mph 1014.9mb 37f 15f
3:30 34 41 mph 1014.8mb 37f 16f
3:24 34 40 mph 1014.5mb 37f 16f
3:18 37 41 mph 1014.3mb 37f 16f
3:12 32 38 mph 1014.3mb 37f 17f
3:06 33 39 mph 1014.2mb 37f 17f
3:00 30 41 mph 1014.2mb 37f 18f
2:54 39 45 mph 1014.1mb 37f 17f
2:48 32 43 mph 1013.7mb 37f 18f
2:42 33 43 mph 1013.5mb 36f 18f
2:36 30 36 mph 1013.3mb 36f 19f
2:30 29 37 mph 1013mb 36f 19f
2:24 26 34 mph 1013.2mb 36f 18f
2:18 29 37 mph 1013.3mb 36f 19f
2:12 26 34 mph 1013mb 36f 19f
2:06 31 36 mph 1012.8mb 36f 19f
2:00 30 36 mph 1012.6mb 36f 19f
1:54 29 33 mph 1012.6mb 36f 20f
1:48 28 37 mph 1012.4mb 36f 20f
1:42 29 34 mph 1012.3mb 36f 20f
1:36 28 34 mph 1012.2mb 36f 20f
1:30 31 37 mph 1012.1mb 36f 20f
1:24 26 36 mph 1012mb 36f 21f
1:18 29 34 mph 1011.9mb 36f 20f
1:12 28 33 mph 1011.9mb 36f 22f
1:06 25 37 mph 1011.9mb 36f 21f
1:00 29 33 mph 1011.8mb 36f 21f
12:54 31 36 mph 1011.7mb 36f 21f
12:48 29 34 mph 1011.7mb 36f 21f
12:42 28 38 mph 1011.9mb 36f 21f
12:36 32 37 mph 1011.8mb 36f 22f
12:30 25 33 mph 1011.9mb 36f 22f
12:24 30 36 mph 1012.2mb 36f 22f
12:18 28 34 mph 1012.4mb 36f 22f
12:12 25 30 mph 1011.9mb 36f 22f
12:06 24 33 mph 1011.7mb 36f 22f
12:00 29 32 mph 1011.7mb 36f 22f
11:54 29 32 mph 1011.7mb 36f 22f
11:48 28 32 mph 1011.8mb 36f 23f
11:42 25 34 mph 1011.9mb 36f 23f
11:36 25 32 mph 1011.7mb 36f 22f
11:30 24 31 mph 1011.8mb 36f 22f
11:24 28 32 mph 1011.9mb 36f 22f
11:18 29 33 mph 1011.8mb 36f 22f
11:12 32 37 mph 1011.7mb 37f 22f
11:06 30 37 mph 1011.7mb 37f 22f
11:00 28 34 mph 1011.6mb 37f 23f
10:54 26 33 mph 1011.6mb 37f 22f
10:48 24 30 mph 1011.6mb 37f 24f
10:42 26 31 mph 1011.4mb 36f 23f
10:36 28 34 mph 1011.4mb 36f 23f
10:30 25 38 mph 1011.4mb 36f 23f
10:24 29 34 mph 1011.3mb 36f 23f
10:18 24 30 mph 1011.3mb 36f 23f
10:12 24 31 mph 1011.3mb 36f 22f
10:06 26 34 mph 1011.3mb 36f 23f
10:00 21 30 mph 1011.3mb 36f 23f
9:54 23 30 mph 1011.2mb 36f 22f
9:48 26 34 mph 1011.1mb 36f 22f
9:42 28 31 mph 1011mb 36f 22f
9:36 20 26 mph 1011.2mb 36f 22f
9:30 21 28 mph 1011.2mb 36f 22f
9:24 18 22 mph 1011.3mb 36f 21f
9:18 21 26 mph 1011.2mb 36f 21f
9:12 21 24 mph 1011.3mb 36f 21f
9:06 20 24 mph 1011.3mb 36f 21f
9:00 21 25 mph 1011.3mb 36f 21f
8:54 18 21 mph 1011.2mb 36f 21f
8:48 17 21 mph 1011.2mb 36f 21f
8:42 15 21 mph 1011.3mb 36f 20f
8:36 15 18 mph 1011.2mb 35f 20f
8:30 14 17 mph 1011.2mb 35f 20f
8:24 14 17 mph 1011.2mb 35f 20f
8:18 15 17 mph 1011.1mb 35f 19f
8:12 14 18 mph 1011.1mb 35f 19f
8:06 14 17 mph 1011.1mb 35f 19f
8:00 16 18 mph 1011.1mb 35f 19f
7:54 16 21 mph 1011mb 35f 19f
7:48 16 21 mph 1011mb 35f 19f
7:42 16 20 mph 1010.9mb 35f 19f
7:36 16 21 mph 1010.9mb 35f 20f
7:30 15 17 mph 1010.8mb 35f 19f
7:24 15 18 mph 1010.8mb 35f 19f
7:18 16 18 mph 1010.7mb 35f 20f
7:12 16 18 mph 1010.7mb 35f 19f
7:06 15 18 mph 1010.6mb 35f 19f
7:00 14 17 mph 1010.7mb 35f 19f
6:54 11 16 mph 1010.6mb 35f 19f
6:48 14 15 mph 1010.5mb 35f 20f
6:42 14 16 mph 1010.5mb 35f 19f
6:36 11 14 mph 1010.4mb 35f 19f
6:30 11 14 mph 1010.4mb 35f 19f
6:24 10 13 mph 1010.4mb 35f 20f
6:18 9 14 mph 1010.4mb 36f 20f
6:12 10 13 mph 1010.3mb 36f 20f
6:06 8 11 mph 1010.3mb 36f 20f
6:00 11 14 mph 1010.3mb 36f 20f
5:54  -  mph 1010.3mb 36f 19f
5:48  -  mph 1010.3mb 36f 20f
5:42  -  mph 1010.3mb 36f 20f
5:36  -  mph 1010.3mb 36f 19f
5:30  -  mph 1010.4mb 36f 19f
5:24  -  mph 1010.4mb 36f 20f
5:18  -  mph 1010.4mb 36f 20f
5:12  -  mph 1010.4mb 36f 19f
5:06  -  mph 1010.4mb 36f 19f
5:00  -  mph 1010.4mb 35f 20f
4:54  -  mph 1010.5mb 35f 20f
4:48  -  mph 1010.4mb 35f 20f
4:42  -  mph 1010.5mb 35f 20f
4:36  -  mph 1010.4mb 35f 20f
4:30  -  mph 1010.3mb 35f 20f
4:24  -  mph 1010.3mb 35f 20f
4:18  -  mph 1010.3mb 35f 20f
4:12  -  mph 1010.3mb 36f 20f
3:12  -  mph 1010.5mb 36f 21f
3:00  -  mph 1010.6mb 36f 22f
2:54  -  mph 1010.6mb 36f 22f
2:48  -  mph 1010.7mb 36f 22f
2:42  -  mph 1010.7mb 36f 22f
2:36  -  mph 1010.8mb 36f 22f
2:30  -  mph 1010.9mb 36f 22f
2:24  -  mph 1010.9mb 36f 22f
2:18  -  mph 1010.9mb 36f 22f
2:12  -  mph 1011mb 36f 22f
2:06  -  mph 1011.1mb 37f 22f
2:00  -  mph 1011.2mb 36f 22f
1:54  -  mph 1011.3mb 36f 22f
1:48  -  mph 1011.4mb 36f 22f
1:42  -  mph 1011.5mb 36f 22f
1:36  -  mph 1011.7mb 36f 22f
1:30  -  mph 1011.6mb 36f 22f
1:24  -  mph 1011.8mb 36f 21f
1:18  -  mph 1011.9mb 36f 21f
1:12  -  mph 1012mb 36f 20f
1:06  -  mph 1012.1mb 36f 20f
1:00  -  mph 1012.2mb 36f 20f
12:54  -  5 mph 1012.4mb 37f 20f
12:48 3 6 mph 1012.6mb 37f 20f
12:42 6 9 mph 1012.7mb 37f 20f
12:36 6 10 mph 1012.9mb 37f 21f
12:30 7 9 mph 1012.9mb 37f 21f
12:24 7 10 mph 1013.1mb 37f 21f
12:18 6 8 mph 1013.2mb 37f 21f
12:12 5 7 mph 1013.2mb 37f 22f
12:06 5 7 mph 1013.2mb 37f 21f
12:00 3 7 mph 1013.3mb 37f 21f
Fr 02/12 11:54 7 10 mph 1013.5mb 37f 21f
11:48 6 8 mph 1013.6mb 37f 21f
11:42 6 7 mph 1013.6mb 37f 22f
11:36 7 8 mph 1013.6mb 37f 22f
11:30 7 8 mph 1013.8mb 37f 22f
11:24 8 9 mph 1013.8mb 37f 22f
11:18 7 10 mph 1013.9mb 37f 22f
11:12 8 9 mph 1013.8mb 37f 22f
11:06 6 7 mph 1013.9mb 37f 22f
11:00 5 6 mph 1013.9mb 37f 22f
10:54 5 6 mph 1014mb 37f 22f
10:48 5 8 mph 1014mb 37f 22f
10:42 7 8 mph 1014.1mb 37f 22f
10:36 7 8 mph 1014.2mb 37f 22f
10:30 6 8 mph 1014.2mb 37f 22f
10:24 7 9 mph 1014.2mb 37f 22f
10:18  -  mph 1014.4mb 37f 22f
10:12  -  mph 1014.4mb 37f 22f
10:06  -  mph 1014.4mb 37f 22f
10:00  -  mph 1014.4mb 37f 22f
9:54  -  mph 1014.4mb 37f 22f
9:48 7 9 mph 1014.4mb 37f 22f
9:42 7 8 mph 1014.5mb 37f 22f
9:36 6 7 mph 1014.5mb 37f 22f
9:30 6 8 mph 1014.6mb 37f -
9:24 6 7 mph 1014.6mb 37f -
9:18  -  mph 1014.7mb 37f 23f
9:12  -  mph 1014.7mb 37f 22f
9:06  -  mph 1014.8mb 37f 23f
9:00  -  mph 1015mb 37f 22f
8:54  -  mph 1015.1mb 37f 22f
8:48 6 8 mph 1015.2mb 37f 23f
8:42 6 8 mph 1015.4mb 37f 22f
8:36 7 10 mph 1015.5mb 37f 22f
8:30 8 9 mph 1015.6mb 37f 22f
8:24 7 9 mph 1015.7mb 37f 23f
8:18 7 9 mph 1015.9mb 37f 23f
8:12 8 9 mph 1016mb 37f 22f
8:06 8 10 mph 1016.1mb 37f 23f
8:00  -  mph 1016.2mb 37f 23f
7:54  -  mph 1016.3mb 37f 23f
7:48 10 11 mph 1016.4mb 37f 23f
7:42 9 10 mph 1016.6mb 37f 23f
7:36 9 10 mph 1016.8mb 37f 23f
7:30  -  mph 1016.9mb 37f 23f
7:24  -  mph 1017.1mb 37f 23f
7:18  -  mph 1017.2mb 37f 23f
7:12  -  mph 1017.2mb 37f 23f
7:06  -  mph 1017.3mb 37f 23f
7:00  -  mph 1017.4mb 37f 23f
6:54  -  mph 1017.4mb 37f 23f
6:48 8 10 mph - 37f -
6:42 9 11 mph - 37f -
6:36 8 13 mph - 37f -
6:30  -  mph 1017.7mb 37f 23f
6:24  -  mph 1017.8mb 37f 23f
6:18 11 13 mph 1017.8mb 37f 23f
6:12 10 14 mph 1017.8mb 37f 23f
6:06 10 16 mph 1017.9mb 37f 23f
6:00  -  mph 1017.9mb 37f 23f
5:54  -  mph 1018mb 37f 23f
5:48 10 13 mph 1018.1mb 37f 23f
5:42 13 17 mph 1018.1mb 37f 23f
5:36 13 15 mph 1018.1mb 37f 23f
5:30 13 15 mph 1018.1mb - -
5:24 14 17 mph 1018.2mb - -
5:18 14 17 mph 1018.2mb 37f 23f
5:12 15 20 mph 1018.2mb 37f 23f
5:06 17 20 mph 1018.3mb 37f 23f
5:00 14 16 mph 1018.3mb 37f 23f
4:54 14 16 mph 1018.2mb 37f 23f
4:48 11 16 mph 1018.4mb 37f 23f
4:42 15 18 mph 1018.4mb 37f 23f
4:36 14 18 mph 1018.5mb 37f 23f
4:30 15 17 mph 1018.4mb 37f 23f
4:24 17 20 mph 1018.5mb 37f 23f
4:18 17 22 mph 1018.6mb 37f 23f
4:12 17 20 mph 1018.7mb 37f 23f
4:06 15 20 mph 1018.7mb 37f 23f
4:00 17 20 mph 1018.8mb 37f 23f
3:54 15 17 mph 1018.9mb 37f 23f
3:48 15 17 mph 1018.9mb 37f 24f
3:42 15 18 mph 1018.9mb 37f 24f
3:36 17 20 mph 1018.9mb 37f 23f
3:30 14 21 mph 1018.9mb 37f 24f
3:24 13 18 mph 1019mb 37f 23f
3:18 14 18 mph 1018.9mb 37f 23f
3:12 17 20 mph 1018.9mb 37f 24f
3:06 14 17 mph 1019.1mb 37f 23f
3:00 14 18 mph 1019.1mb 37f 23f
2:54 13 20 mph 1019.1mb 37f 23f
2:48 14 17 mph 1019.1mb 37f 23f
2:42 14 16 mph 1019.1mb 37f 23f
2:36 10 15 mph 1019.2mb 37f 23f
2:30 11 16 mph 1019.2mb 37f 23f
2:24 10 14 mph 1019.4mb 37f 23f
2:18 10 13 mph 1019.5mb 37f 22f
2:12 3 10 mph 1019.6mb 37f 22f
2:06 8 10 mph 1019.8mb 37f 22f
2:00 9 11 mph 1019.9mb 37f 22f
1:54 11 14 mph 1020mb 37f 22f
1:48 8 11 mph 1020.1mb 37f 22f
1:42 9 11 mph 1020.2mb 37f 22f
1:36 8 11 mph 1020.2mb 37f 22f
1:30 8 10 mph 1020.4mb 37f 21f
1:24 8 13 mph 1020.5mb 37f 21f
1:18 7 11 mph 1020.6mb 37f 23f
1:12 2 7 mph 1020.8mb 37f 22f
1:06 5 6 mph 1020.8mb 37f 23f
1:00 5 9 mph 1020.9mb 37f 22f
12:54 8 10 mph 1021mb 37f 22f
12:48 5 7 mph 1021.2mb 37f 22f
12:42 6 8 mph 1021.4mb 37f 22f
12:36 6 13 mph 1021.5mb 37f 21f
12:30 6 9 mph 1021.8mb 37f 21f
12:24 6 10 mph 1021.8mb 37f 21f
12:18 8 11 mph 1022mb 37f 20f
12:12 3 9 mph 1022.1mb 37f 21f
12:06 8 10 mph 1022.2mb 37f 20f
12:00 7 11 mph 1022.2mb 37f 20f
11:54 8 10 mph 1022.3mb 37f 19f
11:48 5 8 mph 1022.4mb 37f 19f
11:42 8 10 mph 1022.4mb 37f 19f
11:36 5 7 mph 1022.6mb 37f 19f
11:30 9 13 mph 1022.8mb 37f 18f
11:24 9 11 mph 1022.9mb 37f 18f
11:18 5 9 mph 1023mb 37f 18f
11:12 10 13 mph 1023.1mb 37f 18f
11:06 7 10 mph 1023.1mb 37f 18f
11:00 9 13 mph 1023.1mb 37f 18f
10:54 8 15 mph 1023mb 37f 18f
10:48 9 14 mph 1023mb 37f 18f
10:42 10 13 mph 1023.1mb 37f 17f
10:36 10 13 mph 1023.2mb 37f 17f
10:30 9 13 mph 1023.4mb 37f 17f
10:24 9 13 mph 1023.7mb 37f 16f
10:18 10 14 mph 1023.7mb 37f 16f
10:12 8 13 mph 1023.8mb 37f 16f
10:06 7 9 mph 1023.9mb 37f 16f
10:00 8 11 mph 1024.1mb 37f 15f
9:54 5 8 mph 1024.2mb 37f 15f
9:48 8 10 mph 1024.3mb 37f 15f
9:42 7 10 mph 1024.4mb 36f 15f
9:36 9 13 mph 1024.5mb 36f 14f
9:30 9 13 mph 1024.5mb 36f 14f
9:24 5 8 mph 1024.4mb 36f 14f
9:18 5 7 mph 1024.4mb 36f 14f
9:12 6 8 mph 1024.4mb 36f 13f
9:06 5 10 mph 1024.4mb 36f 13f
9:00 8 10 mph 1024.4mb 36f 13f
8:54 6 11 mph 1024.4mb 36f 13f
8:48 9 13 mph 1024.5mb 36f 12f
8:42 9 11 mph 1024.4mb 36f 12f
8:36 9 11 mph 1024.3mb 36f 12f
8:30 8 11 mph 1024.2mb 36f 12f
8:24 9 11 mph 1024.2mb 36f 11f
8:18 8 11 mph 1024.3mb 36f 11f
8:12 7 10 mph 1024.4mb 36f 11f
8:06 7 10 mph 1024.4mb 36f 11f
8:00 6 10 mph 1024.4mb 36f 11f
7:54 9 13 mph 1024.4mb 36f 10f
7:48 10 14 mph 1024.2mb 36f 11f
7:42 11 15 mph 1024.2mb 36f 10f
7:36 14 17 mph 1024.2mb 36f 10f
7:30 13 17 mph 1024mb 36f 10f
7:24 10 14 mph 1024.1mb 36f 10f
7:18 10 15 mph 1024.1mb 36f 10f
7:12 11 14 mph 1024mb 36f 10f
7:06 9 11 mph 1024mb 36f 10f
7:00 9 11 mph 1024.1mb 36f 9f
6:54 8 13 mph 1024.2mb 36f 9f
6:48 9 13 mph 1024.3mb 36f 10f
6:42 9 11 mph 1024.3mb 36f 9f
6:36 9 11 mph 1024mb 36f 9f
6:30 8 10 mph 1023.8mb 37f 9f
6:24 8 11 mph 1023.8mb 37f 10f
6:18 8 10 mph 1023.6mb 37f 10f
6:12 9 11 mph 1023.6mb 37f 9f
6:06 8 10 mph 1023.6mb 37f 10f
6:00 9 11 mph 1023.5mb 37f 10f
5:54 9 13 mph 1023.5mb 37f 10f
5:48 9 11 mph 1023.5mb 37f 10f
5:42 8 10 mph 1023.4mb 37f 10f
5:36 9 13 mph 1023.4mb 37f 10f
5:30 9 14 mph 1023.2mb 37f 10f
5:24 9 13 mph 1023.1mb 37f 10f
5:18 11 14 mph 1023.1mb 37f 11f
5:12 11 14 mph 1023.1mb 37f 10f
5:06 8 10 mph 1023mb 37f 10f
5:00  -  mph - - 11f
4:54  -  mph - - 10f
4:48  -  mph 1023mb 37f 10f
4:42  -  mph 1022.9mb 37f 10f
4:36  -  mph 1022.8mb 37f 10f
4:30 8 10 mph 1022.7mb 37f 10f
4:24 7 13 mph 1022.6mb 37f 11f
4:18 7 9 mph 1022.6mb 37f 11f
4:12 8 10 mph 1022.6mb 37f 11f
4:06 8 11 mph 1022.6mb 37f 10f
4:00 8 10 mph 1022.5mb 37f 11f
3:54 9 13 mph 1022.4mb 37f 11f
3:48 10 14 mph 1022.3mb 37f 11f
3:42 11 16 mph 1022.3mb 37f 11f
3:36 11 15 mph 1022.2mb 37f 11f
3:30 11 14 mph 1022.2mb 37f 11f
3:24 10 14 mph 1022.1mb 37f 11f
3:18 13 15 mph 1022.1mb 37f 11f
3:12 14 18 mph 1021.9mb 37f 11f
3:06 14 17 mph 1021.9mb 37f 12f
3:00 14 18 mph 1021.8mb 37f 11f
2:54 14 20 mph 1021.8mb 37f 12f
2:48 14 20 mph 1021.6mb 37f 12f
2:42 15 20 mph 1021.6mb 37f 12f
2:36 16 20 mph 1021.5mb 37f 11f
2:30 18 21 mph 1021.5mb 37f 11f
2:24 17 21 mph 1021.3mb 37f 12f
2:18 16 21 mph 1021.3mb 37f 12f
2:12 17 21 mph 1021.2mb 37f 12f
2:06 15 18 mph 1021.1mb 37f 12f
2:00 16 20 mph 1021mb 37f 13f
1:54 18 24 mph 1020.8mb 37f 12f
1:48 17 22 mph 1020.8mb 37f 13f
1:42 16 22 mph 1020.6mb 37f 13f
1:36 18 24 mph 1020.6mb 37f 13f
1:30 22 24 mph 1020.6mb 37f 13f
1:24 21 25 mph 1020.4mb 37f 13f
1:18 24 30 mph 1020.2mb 37f 13f
1:12 23 29 mph 1020.3mb 37f 13f
1:06 28 32 mph 1020.2mb 37f 14f
1:00 26 33 mph 1019.9mb 37f 14f
12:54 28 32 mph 1019.8mb 37f 14f
12:48 16 26 mph 1019.7mb 37f 14f
12:42 25 32 mph 1019.4mb 37f 15f
12:36 23 32 mph 1019.2mb 37f 15f
12:30 28 36 mph 1018.7mb 37f 15f
12:24 23 32 mph 1018.8mb 37f 15f
12:18 20 29 mph 1018.6mb 37f 16f
12:12 24 32 mph 1018.8mb 37f 15f
12:06 24 30 mph 1018.7mb 37f 15f
12:00 24 32 mph 1018.6mb 37f 15f
Do 02/11 11:54 25 33 mph 1018.6mb 37f 15f
11:48 25 31 mph 1018.8mb 37f 15f
11:42 22 30 mph 1018.6mb 37f 16f
11:36 26 32 mph 1018.5mb 37f 15f
11:30 26 30 mph 1018.5mb 37f 16f
11:24 23 30 mph 1018.5mb 37f 15f
11:18 18 30 mph 1018.3mb 37f 15f
11:12 23 32 mph 1018.2mb 37f 15f
11:06 22 26 mph 1018.2mb 37f 16f
11:00 22 29 mph 1017.9mb 37f 15f
10:54 20 29 mph 1018mb 37f 16f
10:48 21 28 mph 1018.1mb 37f 16f
10:42 23 29 mph 1018mb 37f 16f
10:36 24 31 mph 1017.8mb 37f 15f
10:30 22 28 mph 1018.1mb 37f 15f
10:24 21 29 mph 1017.9mb 37f 15f
10:18  -  mph 1017.8mb 37f 16f
10:12  -  mph 1017.8mb 37f 16f
10:06  -  mph 1017.9mb 37f 16f
10:00  -  mph 1017.7mb 37f 16f
9:54  -  mph 1017.7mb 37f 16f
9:48 21 31 mph - 37f 16f
9:42 28 33 mph - 38f 16f
9:36 22 30 mph - 38f 16f
9:30 24 32 mph 1017.2mb 38f -
9:24 21 33 mph 1017.1mb 38f -
9:18  -  mph 1017mb 38f -
9:12  -  mph 1016.9mb 38f -
9:06  -  mph 1016.8mb 38f -
9:00  -  mph - 38f 16f
8:54  -  mph - 38f 17f
8:48  -  mph 1016.7mb 38f 16f
8:42  -  mph 1016.5mb 38f 17f
8:36  -  mph 1016.3mb 38f 17f
8:30  -  mph 1016.2mb - -
8:24  -  mph 1016mb - -
8:18  -  mph 1015.9mb 38f -
8:12  -  mph 1015.9mb 38f -
8:06  -  mph 1015.8mb 38f -
8:00  -  mph 1015.7mb 38f 17f
7:54  -  mph 1016mb 37f 17f
7:48 28 32 mph 1015.7mb 37f 18f
7:42 23 34 mph 1015.6mb 37f 17f
7:36 28 34 mph 1015.3mb 37f 17f
7:30 31 37 mph 1015.1mb 37f 17f
7:24 28 36 mph 1015mb 37f 18f
7:18  -  mph 1015mb 37f 19f
7:12  -  mph 1014.7mb 37f 18f
7:06  -  mph 1014.7mb 38f 19f
7:00 29 33 mph 1014.6mb 38f 19f
6:54 24 36 mph 1014.3mb 38f 19f
6:48 29 33 mph 1014.2mb 38f -
6:42 25 34 mph 1014.2mb 38f -
6:36 30 38 mph 1014mb 38f -
6:30  -  mph 1013.9mb 38f -
6:24  -  mph 1013.8mb 38f -
6:18  -  mph 1013.6mb 38f 20f
6:12  -  mph 1013.3mb 38f 20f
6:06  -  mph 1013.1mb 38f 21f
6:00 25 31 mph 1012.8mb 38f 21f
5:54 25 29 mph 1012.7mb 38f 21f
5:48 25 33 mph 1012.6mb 38f -
5:42 28 37 mph 1012.5mb 38f -
5:36 26 36 mph 1012.5mb 38f -
5:30 32 41 mph 1012.1mb - 21f
5:24 33 41 mph 1011.8mb - 22f
5:18  -  mph 1011.4mb 38f 22f
5:12  -  mph 1011.3mb 38f 22f
5:06  -  mph 1011.2mb 38f 23f
5:00  -  mph 1011.4mb 38f 23f
4:54  -  mph 1011.2mb 38f 23f
4:48  -  mph - 38f 23f
4:42  -  mph - 38f 23f
4:36  -  mph - 38f 23f
4:30 26 30 mph 1010.7mb 38f 23f
4:24 24 33 mph 1010.6mb 39f 23f
4:18 24 30 mph 1010.6mb - -
4:12 20 25 mph 1010.4mb - -
4:06 24 31 mph 1010.2mb - -
4:00 23 30 mph 1010.3mb 39f 23f
3:54 21 26 mph 1010.1mb 39f 23f
3:48 22 32 mph 1010mb 39f 24f
3:42 25 32 mph 1009.9mb 39f 23f
3:36 24 31 mph 1009.8mb 39f 24f
3:30 24 33 mph 1009.5mb 39f 24f
3:24 28 31 mph 1009.2mb 39f 24f
3:18 24 30 mph 1009mb 39f 25f
3:12 22 25 mph 1009mb 39f 25f
3:06 20 33 mph 1008.8mb 39f 25f
3:00 25 29 mph 1008.9mb 39f 24f
2:54 22 26 mph 1008.9mb 39f 24f
2:48 22 32 mph 1008.6mb 38f 24f
2:42 26 33 mph 1008.4mb 38f 25f
2:36 28 33 mph 1008.3mb 38f 25f
2:30 17 21 mph 1008.5mb 38f 25f
2:24 21 26 mph 1008.4mb 38f 25f
2:18 23 29 mph 1008.1mb 38f 26f
2:12 25 31 mph 1008mb 38f 25f
2:06 26 31 mph 1007.9mb 38f 25f
2:00 28 34 mph 1007.9mb 38f 25f
1:54 24 30 mph 1007.9mb 38f 25f
1:48 25 32 mph 1007.9mb 38f 25f
1:42 24 32 mph 1007.9mb 38f 25f
1:36 25 32 mph 1007.8mb 38f 25f
1:30 24 31 mph 1007.7mb 38f 25f
1:24 21 24 mph 1007.9mb 38f 26f
1:18 21 24 mph 1008mb 38f 25f
1:12 21 28 mph 1007.9mb 38f 25f
1:06 24 26 mph 1007.7mb 38f 25f
1:00 23 26 mph 1007.7mb 38f 25f
12:54 18 25 mph 1008.1mb 38f 25f
12:48 21 26 mph 1008mb 38f 25f
12:42 24 29 mph 1008.2mb 38f 25f
12:36 22 26 mph 1007.9mb 38f 25f
12:30 22 25 mph 1007.9mb 38f 26f
12:24 21 26 mph 1007.9mb 38f 25f
12:18 22 29 mph 1008mb 38f 25f
12:12 23 28 mph 1008mb 38f 26f
12:06 23 28 mph 1008mb 38f 26f
12:00 20 24 mph 1008.1mb 38f 26f
11:54 21 26 mph 1008.1mb 38f 26f
11:48 22 26 mph 1008.1mb 38f 26f
11:42 20 23 mph 1008.1mb 38f 26f
11:36 21 24 mph 1008.2mb 38f 26f
11:30 22 25 mph 1008.2mb 38f 26f
11:24 22 24 mph 1008.2mb 38f 25f
11:18 22 25 mph 1008.2mb 38f 25f
11:12 17 23 mph 1008.3mb 38f 26f
11:06 20 25 mph 1008.2mb 38f 25f
11:00 20 25 mph 1008.1mb 38f -
10:54 22 24 mph 1008.2mb 38f -
10:48 18 22 mph 1008.2mb 38f 26f
10:42 20 25 mph 1008.2mb 38f 25f
10:36 20 22 mph 1008.1mb 38f 26f
10:30 20 24 mph - 38f 25f
10:24 20 25 mph - 38f 26f
10:18 23 25 mph 1008.2mb 38f 26f
10:12 18 23 mph 1008.2mb 38f 26f
10:06 22 23 mph 1008mb 38f 26f
10:00 21 24 mph 1008mb 38f 26f
9:54 18 23 mph 1008mb 38f 26f
9:48 18 23 mph 1007.9mb 38f 26f
9:42 21 25 mph 1008.1mb 38f 26f
9:36 17 24 mph 1008mb 38f 26f
9:30 16 22 mph 1007.9mb 38f 26f
9:24 16 21 mph 1007.9mb 38f 26f
9:18 16 18 mph 1007.9mb 38f 27f
9:12 14 21 mph 1007.9mb 38f 27f
9:06 20 24 mph 1007.9mb 38f 26f
9:00 16 21 mph 1007.9mb 39f 26f
8:54 18 25 mph 1007.9mb 39f 26f
8:48 20 24 mph 1007.8mb 39f 26f
8:42 15 22 mph 1007.8mb 39f 26f
8:36 16 24 mph 1007.7mb 39f 26f
8:30 18 22 mph 1007.6mb 39f 26f
8:24 18 22 mph 1007.6mb 38f 27f
8:18 17 23 mph 1007.5mb 38f 27f
8:12 18 21 mph 1007.3mb 38f 27f
8:06 16 18 mph 1007.2mb 38f 27f
8:00 17 21 mph 1007.2mb 38f 27f
7:54 14 18 mph 1007.2mb 38f 27f
7:48 17 21 mph 1007mb 38f 28f
7:42 18 24 mph 1007mb 38f 27f
7:36 18 22 mph 1006.9mb 38f 27f
7:24 15 20 mph 1006.8mb 38f 28f
7:18 14 17 mph 1006.8mb 38f 27f
7:12 14 18 mph 1006.6mb 38f 27f
7:06 14 16 mph 1006.5mb 39f 27f
7:00 13 14 mph 1006.5mb 39f 28f
6:54 13 15 mph 1006.4mb 39f 27f
6:48 11 14 mph 1006.3mb 39f 27f
6:42 11 14 mph 1006.3mb 39f 27f
6:36 11 15 mph 1006.3mb 38f 27f
6:30 11 13 mph 1006.3mb 38f 27f
6:24 10 13 mph 1006.3mb 38f 27f
6:18 8 10 mph 1006.4mb 38f 27f
6:12 9 11 mph 1006.4mb 38f 27f
6:06 10 13 mph 1006.3mb 38f 27f
6:00 10 15 mph 1006.3mb 38f 27f
5:54 11 14 mph 1006.3mb 38f 27f
5:48 11 14 mph 1006.2mb 38f 27f
5:42 10 13 mph 1006.1mb 38f 27f
5:36 10 11 mph 1006.1mb 38f 27f
5:30 8 11 mph 1006.1mb 38f 27f
5:24 9 10 mph 1006.1mb 38f 27f
5:18  -  mph - - 27f
5:12  -  mph - - 27f
5:06  -  mph - - 26f
5:00  -  mph - - 26f
4:54  -  mph - - 27f
4:48  -  mph - 39f 27f
4:42  -  mph - 39f 27f
4:36  -  mph - 39f 27f
4:30 8 10 mph 1005.6mb 39f 28f
4:24 9 13 mph 1005.6mb 39f 28f
4:18 11 16 mph 1005.5mb 39f 28f
4:12 14 16 mph 1005.3mb 39f 28f
4:06 11 14 mph 1005.2mb 39f 28f
4:00 10 11 mph 1005.1mb 39f 28f
3:54 9 13 mph 1005.2mb 39f 28f
3:48 10 13 mph 1005.3mb 38f 28f
3:42 10 15 mph 1005.3mb 38f 28f
3:36 11 13 mph 1005.2mb 38f 28f
3:30 11 14 mph 1005mb 38f 28f
3:24 13 14 mph 1005mb 38f 29f
3:18 11 14 mph 1005mb 38f 29f
3:12 10 11 mph 1005.1mb 38f 29f
3:06 10 13 mph 1005.2mb 38f 29f
3:00 10 13 mph 1005.3mb 38f 29f
2:54 9 13 mph 1005.3mb 38f 29f
2:48 9 13 mph 1005.4mb 38f 29f
2:42 9 11 mph 1005.3mb 38f 29f
2:36 9 10 mph 1005.3mb 38f 29f
2:30 8 10 mph 1005.4mb 38f 29f
2:24 9 11 mph 1005.4mb 38f 29f
2:18 9 10 mph 1005.4mb 38f 29f
2:12 9 10 mph 1005.4mb 38f 29f
2:06 9 10 mph 1005.3mb 38f 29f
2:00 9 11 mph 1005.4mb 38f 29f
1:54 10 13 mph 1005.4mb 38f 29f
1:48 10 14 mph 1005.4mb 38f 29f
1:42 10 11 mph 1005.4mb 38f 30f
1:36 10 11 mph 1005.4mb 38f 30f
1:30 8 10 mph 1005.5mb 38f 30f
1:24 8 10 mph 1005.5mb 38f 30f
1:18 9 11 mph 1005.5mb 38f 30f
1:12 10 13 mph 1005.5mb 38f 31f
1:06 9 11 mph 1005.5mb 38f 31f
1:00 9 13 mph 1005.6mb 38f 31f
12:54 11 14 mph 1005.5mb 38f 31f
12:48 13 14 mph 1005.4mb 38f 31f
12:42 13 14 mph 1005.4mb 38f 31f
12:36 13 15 mph 1005.4mb 38f 31f
12:30 14 16 mph 1005.4mb 38f 32f
12:24 14 16 mph 1005.4mb 38f 32f
12:18 14
mph
1005.3mb 38f 32f
12:12 13 14 mph 1005.5mb 38f 32f
12:06 11 15 mph 1005.6mb 38f 32f
12:00 11 14 mph 1005.5mb 39f 32f
Mi 02/10 11:54 13 15 mph 1005.4mb 39f 32f
11:48 13 16 mph 1005.4mb 39f 33f
11:42 13 16 mph 1005.4mb 39f 33f
11:36 13 16 mph 1005.4mb 39f 33f
11:30 13 15 mph 1005.4mb 39f 33f
11:24 14 17 mph 1005.4mb 39f 33f
11:18 14 17 mph 1005.4mb 39f 33f
11:12 14 18 mph 1005.4mb 39f 33f
11:06 16 22 mph 1005.4mb 39f 33f
11:00 16 18 mph 1005.4mb 39f 33f
10:54 16 20 mph 1005.4mb 39f 34f
10:48 13 16 mph 1005.4mb 39f 34f
10:42 14 18 mph 1005.3mb 39f 34f
10:36 14 20 mph 1005.2mb 39f 34f
10:30 13 15 mph 1005.1mb 39f 33f
10:24 13 16 mph 1005.1mb 39f 33f
10:18 13 15 mph 1005.1mb 39f 33f
10:12 10 11 mph 1005.1mb 39f 33f